Ralls, Texas
Current Conditions -  °F | °C
As of 4:53 PM on Wednesday 26 Nov 2014 (Local Time) from KLBB Reporting Station
Scattered Clouds Scattered Clouds  
Wind Chill: 13°   Ceiling: Unl
Heat Index: 13°   Visibility: 10mi
Dew Point: -3°   Wind: 6mph
Humidity: 32%   Direction: 60°ENE
Pressure: 30.26"   Gusts: NA
Location:  33.67°N, 101.39°W
Report Text: KLBB 262253Z 06005KT 10SM FEW260 SCT300 13/M03 A3026 RMK AO2 SLP233 T01331033
Loading
Personal Weather Stations






























Interactive Weather Map New forecast layout! Learn more

10-Day Weather Forecast

Advertisements
Track Severe Weather on mobile